sensor_id;sensor_type;location;lat;lon;timestamp;temperature;humidity
254;DHT22;590;48.772;8.846;2022-07-23T00:00:35;25.00;19.80
254;DHT22;590;48.772;8.846;2022-07-23T00:03:05;25.00;19.60
254;DHT22;590;48.772;8.846;2022-07-23T00:05:33;24.90;20.20
254;DHT22;590;48.772;8.846;2022-07-23T00:08:03;24.90;20.60
254;DHT22;590;48.772;8.846;2022-07-23T00:10:35;24.90;19.90
254;DHT22;590;48.772;8.846;2022-07-23T00:13:03;24.90;19.90
254;DHT22;590;48.772;8.846;2022-07-23T00:15:32;24.90;20.40
254;DHT22;590;48.772;8.846;2022-07-23T00:18:01;24.90;20.20
254;DHT22;590;48.772;8.846;2022-07-23T00:20:29;24.80;20.40
254;DHT22;590;48.772;8.846;2022-07-23T00:22:57;24.80;20.70
254;DHT22;590;48.772;8.846;2022-07-23T00:25:26;24.80;20.60
254;DHT22;590;48.772;8.846;2022-07-23T00:27:57;24.80;20.70
254;DHT22;590;48.772;8.846;2022-07-23T00:30:26;24.80;20.60
254;DHT22;590;48.772;8.846;2022-07-23T00:32:58;24.80;20.70
254;DHT22;590;48.772;8.846;2022-07-23T00:35:30;24.80;20.70
254;DHT22;590;48.772;8.846;2022-07-23T00:37:59;24.80;20.80
254;DHT22;590;48.772;8.846;2022-07-23T00:40:29;24.70;21.00
254;DHT22;590;48.772;8.846;2022-07-23T00:42:57;24.70;21.10
254;DHT22;590;48.772;8.846;2022-07-23T00:45:26;24.60;21.60
254;DHT22;590;48.772;8.846;2022-07-23T00:47:54;24.60;21.70
254;DHT22;590;48.772;8.846;2022-07-23T00:50:23;24.60;22.00
254;DHT22;590;48.772;8.846;2022-07-23T00:52:52;24.50;22.80
254;DHT22;590;48.772;8.846;2022-07-23T00:55:21;24.40;22.90
254;DHT22;590;48.772;8.846;2022-07-23T00:57:50;24.40;23.50
254;DHT22;590;48.772;8.846;2022-07-23T01:00:18;24.40;23.80
254;DHT22;590;48.772;8.846;2022-07-23T01:02:46;24.30;23.70
254;DHT22;590;48.772;8.846;2022-07-23T01:05:15;24.30;24.00
254;DHT22;590;48.772;8.846;2022-07-23T01:07:44;24.30;23.40
254;DHT22;590;48.772;8.846;2022-07-23T01:10:15;24.20;23.10
254;DHT22;590;48.772;8.846;2022-07-23T01:12:59;24.20;23.60
254;DHT22;590;48.772;8.846;2022-07-23T01:15:28;24.20;24.30
254;DHT22;590;48.772;8.846;2022-07-23T01:17:56;24.10;23.90
254;DHT22;590;48.772;8.846;2022-07-23T01:20:24;24.10;24.10
254;DHT22;590;48.772;8.846;2022-07-23T01:22:54;24.00;24.90
254;DHT22;590;48.772;8.846;2022-07-23T01:25:23;24.00;26.40
254;DHT22;590;48.772;8.846;2022-07-23T01:27:52;23.90;26.40
254;DHT22;590;48.772;8.846;2022-07-23T01:30:20;23.90;26.70
254;DHT22;590;48.772;8.846;2022-07-23T01:32:48;23.80;26.50
254;DHT22;590;48.772;8.846;2022-07-23T01:35:16;23.80;26.20
254;DHT22;590;48.772;8.846;2022-07-23T01:37:44;23.80;25.30
254;DHT22;590;48.772;8.846;2022-07-23T01:40:14;23.80;24.90
254;DHT22;590;48.772;8.846;2022-07-23T01:42:44;23.80;27.90
254;DHT22;590;48.772;8.846;2022-07-23T01:45:13;23.80;31.00
254;DHT22;590;48.772;8.846;2022-07-23T01:47:41;23.60;30.10
254;DHT22;590;48.772;8.846;2022-07-23T01:50:09;23.50;30.70
254;DHT22;590;48.772;8.846;2022-07-23T01:52:37;23.30;28.20
254;DHT22;590;48.772;8.846;2022-07-23T01:55:06;23.20;28.60
254;DHT22;590;48.772;8.846;2022-07-23T01:57:36;23.20;29.20
254;DHT22;590;48.772;8.846;2022-07-23T02:00:05;23.20;29.40
254;DHT22;590;48.772;8.846;2022-07-23T02:02:33;23.10;29.00
254;DHT22;590;48.772;8.846;2022-07-23T02:05:01;23.10;28.20
254;DHT22;590;48.772;8.846;2022-07-23T02:07:29;23.10;28.50
254;DHT22;590;48.772;8.846;2022-07-23T02:10:00;23.10;29.60
254;DHT22;590;48.772;8.846;2022-07-23T02:12:28;23.00;30.00
254;DHT22;590;48.772;8.846;2022-07-23T02:14:58;23.00;30.10
254;DHT22;590;48.772;8.846;2022-07-23T02:17:26;22.90;29.70
254;DHT22;590;48.772;8.846;2022-07-23T02:19:54;22.90;29.30
254;DHT22;590;48.772;8.846;2022-07-23T02:22:22;22.80;29.20
254;DHT22;590;48.772;8.846;2022-07-23T02:24:50;22.90;29.80
254;DHT22;590;48.772;8.846;2022-07-23T02:27:18;22.90;30.90
254;DHT22;590;48.772;8.846;2022-07-23T02:29:46;22.80;30.80
254;DHT22;590;48.772;8.846;2022-07-23T02:32:16;22.80;30.70
254;DHT22;590;48.772;8.846;2022-07-23T02:34:44;22.80;30.80
254;DHT22;590;48.772;8.846;2022-07-23T02:37:12;22.80;31.50
254;DHT22;590;48.772;8.846;2022-07-23T02:39:40;22.80;31.50
254;DHT22;590;48.772;8.846;2022-07-23T02:42:08;22.70;31.70
254;DHT22;590;48.772;8.846;2022-07-23T02:44:36;22.80;30.70
254;DHT22;590;48.772;8.846;2022-07-23T02:47:04;22.80;30.00
254;DHT22;590;48.772;8.846;2022-07-23T02:49:34;22.80;29.40
254;DHT22;590;48.772;8.846;2022-07-23T02:52:02;22.90;28.80
254;DHT22;590;48.772;8.846;2022-07-23T02:54:30;22.90;28.30
254;DHT22;590;48.772;8.846;2022-07-23T02:56:59;23.00;27.60
254;DHT22;590;48.772;8.846;2022-07-23T02:59:27;23.00;26.90
254;DHT22;590;48.772;8.846;2022-07-23T03:01:55;23.00;26.70
254;DHT22;590;48.772;8.846;2022-07-23T03:04:23;23.10;26.70
254;DHT22;590;48.772;8.846;2022-07-23T03:06:52;23.10;26.70
254;DHT22;590;48.772;8.846;2022-07-23T03:09:20;23.10;26.70
254;DHT22;590;48.772;8.846;2022-07-23T03:11:48;23.10;26.90
254;DHT22;590;48.772;8.846;2022-07-23T03:14:16;23.10;26.70
254;DHT22;590;48.772;8.846;2022-07-23T03:16:44;23.10;27.80
254;DHT22;590;48.772;8.846;2022-07-23T03:19:12;23.00;27.90
254;DHT22;590;48.772;8.846;2022-07-23T03:21:40;23.00;28.40
254;DHT22;590;48.772;8.846;2022-07-23T03:24:10;23.00;28.40
254;DHT22;590;48.772;8.846;2022-07-23T03:26:38;22.90;28.70
254;DHT22;590;48.772;8.846;2022-07-23T03:29:06;22.80;29.30
254;DHT22;590;48.772;8.846;2022-07-23T03:31:34;22.80;29.60
254;DHT22;590;48.772;8.846;2022-07-23T03:34:02;22.70;29.70
254;DHT22;590;48.772;8.846;2022-07-23T03:36:30;22.60;30.20
254;DHT22;590;48.772;8.846;2022-07-23T03:38:58;22.50;31.20
254;DHT22;590;48.772;8.846;2022-07-23T03:41:29;22.50;31.70
254;DHT22;590;48.772;8.846;2022-07-23T03:43:57;22.50;31.90
254;DHT22;590;48.772;8.846;2022-07-23T03:46:25;22.40;31.90
254;DHT22;590;48.772;8.846;2022-07-23T03:48:53;22.40;32.80
254;DHT22;590;48.772;8.846;2022-07-23T03:51:25;22.40;33.70
254;DHT22;590;48.772;8.846;2022-07-23T03:53:53;22.30;33.80
254;DHT22;590;48.772;8.846;2022-07-23T03:56:21;22.30;34.90
254;DHT22;590;48.772;8.846;2022-07-23T03:58:50;22.30;35.00
254;DHT22;590;48.772;8.846;2022-07-23T04:01:18;22.30;33.80
254;DHT22;590;48.772;8.846;2022-07-23T04:03:47;22.20;33.70
254;DHT22;590;48.772;8.846;2022-07-23T04:06:15;22.30;33.80
254;DHT22;590;48.772;8.846;2022-07-23T04:08:43;22.30;33.00
254;DHT22;590;48.772;8.846;2022-07-23T04:11:11;22.30;32.70
254;DHT22;590;48.772;8.846;2022-07-23T04:13:39;22.30;32.30
254;DHT22;590;48.772;8.846;2022-07-23T04:16:09;22.30;32.70
254;DHT22;590;48.772;8.846;2022-07-23T04:18:37;22.30;33.80
254;DHT22;590;48.772;8.846;2022-07-23T04:21:05;22.40;33.90
254;DHT22;590;48.772;8.846;2022-07-23T04:23:33;22.40;33.50
254;DHT22;590;48.772;8.846;2022-07-23T04:26:01;22.50;32.50
254;DHT22;590;48.772;8.846;2022-07-23T04:28:29;22.50;34.00
254;DHT22;590;48.772;8.846;2022-07-23T04:30:58;22.50;33.70
254;DHT22;590;48.772;8.846;2022-07-23T04:33:27;22.60;32.80
254;DHT22;590;48.772;8.846;2022-07-23T04:35:55;22.60;30.90
254;DHT22;590;48.772;8.846;2022-07-23T04:38:23;22.60;31.90
254;DHT22;590;48.772;8.846;2022-07-23T04:40:51;22.70;32.50
254;DHT22;590;48.772;8.846;2022-07-23T04:43:19;22.90;30.90
254;DHT22;590;48.772;8.846;2022-07-23T04:45:47;23.00;31.30
254;DHT22;590;48.772;8.846;2022-07-23T04:48:16;23.00;30.80
254;DHT22;590;48.772;8.846;2022-07-23T04:50:46;23.00;31.20
254;DHT22;590;48.772;8.846;2022-07-23T04:53:14;23.00;31.40
254;DHT22;590;48.772;8.846;2022-07-23T04:55:42;23.00;30.10
254;DHT22;590;48.772;8.846;2022-07-23T04:58:10;23.10;29.40
254;DHT22;590;48.772;8.846;2022-07-23T05:00:38;23.10;30.20
254;DHT22;590;48.772;8.846;2022-07-23T05:03:06;23.30;29.80
254;DHT22;590;48.772;8.846;2022-07-23T05:05:34;23.80;29.10
254;DHT22;590;48.772;8.846;2022-07-23T05:08:04;24.50;25.30
254;DHT22;590;48.772;8.846;2022-07-23T05:10:33;25.30;23.10
254;DHT22;590;48.772;8.846;2022-07-23T05:13:01;26.00;20.10
254;DHT22;590;48.772;8.846;2022-07-23T05:15:29;26.20;19.00
254;DHT22;590;48.772;8.846;2022-07-23T05:17:58;26.00;18.80
254;DHT22;590;48.772;8.846;2022-07-23T05:20:26;25.70;19.90
254;DHT22;590;48.772;8.846;2022-07-23T05:22:54;25.80;19.90
254;DHT22;590;48.772;8.846;2022-07-23T05:25:23;25.90;19.50
254;DHT22;590;48.772;8.846;2022-07-23T05:27:52;25.70;19.40
254;DHT22;590;48.772;8.846;2022-07-23T05:30:20;25.50;20.40
254;DHT22;590;48.772;8.846;2022-07-23T05:32:48;25.20;21.30
254;DHT22;590;48.772;8.846;2022-07-23T05:35:17;25.00;22.40
254;DHT22;590;48.772;8.846;2022-07-23T05:37:45;24.80;23.30
254;DHT22;590;48.772;8.846;2022-07-23T05:40:13;24.50;24.40
254;DHT22;590;48.772;8.846;2022-07-23T05:42:43;24.40;24.50
254;DHT22;590;48.772;8.846;2022-07-23T05:45:11;24.20;25.70
254;DHT22;590;48.772;8.846;2022-07-23T05:47:40;24.10;26.00
254;DHT22;590;48.772;8.846;2022-07-23T05:50:09;24.00;26.50
254;DHT22;590;48.772;8.846;2022-07-23T05:52:37;23.90;26.10
254;DHT22;590;48.772;8.846;2022-07-23T05:55:07;23.80;26.00
254;DHT22;590;48.772;8.846;2022-07-23T05:57:35;23.70;27.30
254;DHT22;590;48.772;8.846;2022-07-23T06:00:07;23.80;27.40
254;DHT22;590;48.772;8.846;2022-07-23T06:02:37;23.80;27.20
254;DHT22;590;48.772;8.846;2022-07-23T06:05:06;23.90;27.30
254;DHT22;590;48.772;8.846;2022-07-23T06:07:35;24.00;25.20
254;DHT22;590;48.772;8.846;2022-07-23T06:10:04;24.40;25.50
254;DHT22;590;48.772;8.846;2022-07-23T06:12:34;24.80;22.70
254;DHT22;590;48.772;8.846;2022-07-23T06:15:03;25.50;21.50
254;DHT22;590;48.772;8.846;2022-07-23T06:17:38;26.10;20.10
254;DHT22;590;48.772;8.846;2022-07-23T06:20:08;26.90;17.70
254;DHT22;590;48.772;8.846;2022-07-23T06:22:36;27.50;15.50
254;DHT22;590;48.772;8.846;2022-07-23T06:25:08;27.80;14.50
254;DHT22;590;48.772;8.846;2022-07-23T06:27:45;28.00;14.00
254;DHT22;590;48.772;8.846;2022-07-23T06:30:14;28.30;13.40
254;DHT22;590;48.772;8.846;2022-07-23T06:32:54;28.70;13.20
254;DHT22;590;48.772;8.846;2022-07-23T06:35:32;29.40;11.80
254;DHT22;590;48.772;8.846;2022-07-23T06:38:03;29.80;10.20
254;DHT22;590;48.772;8.846;2022-07-23T06:40:31;29.60;9.30
254;DHT22;590;48.772;8.846;2022-07-23T06:42:59;29.10;9.40
254;DHT22;590;48.772;8.846;2022-07-23T06:45:31;28.40;10.50
254;DHT22;590;48.772;8.846;2022-07-23T06:48:01;27.80;11.70
254;DHT22;590;48.772;8.846;2022-07-23T06:50:31;27.10;13.00
254;DHT22;590;48.772;8.846;2022-07-23T06:52:59;26.40;14.80
254;DHT22;590;48.772;8.846;2022-07-23T06:55:30;25.80;16.40
254;DHT22;590;48.772;8.846;2022-07-23T06:57:59;25.50;18.20
254;DHT22;590;48.772;8.846;2022-07-23T07:00:29;25.20;19.70
254;DHT22;590;48.772;8.846;2022-07-23T07:03:05;24.80;22.80
254;DHT22;590;48.772;8.846;2022-07-23T07:05:34;24.50;26.00
254;DHT22;590;48.772;8.846;2022-07-23T07:08:02;24.20;29.80
254;DHT22;590;48.772;8.846;2022-07-23T07:10:30;24.00;32.40
254;DHT22;590;48.772;8.846;2022-07-23T07:13:10;23.90;35.60
254;DHT22;590;48.772;8.846;2022-07-23T07:15:38;23.80;38.80
254;DHT22;590;48.772;8.846;2022-07-23T07:18:08;23.80;39.70
254;DHT22;590;48.772;8.846;2022-07-23T07:20:36;24.00;40.20
254;DHT22;590;48.772;8.846;2022-07-23T07:23:04;24.20;39.50
254;DHT22;590;48.772;8.846;2022-07-23T07:25:32;24.40;40.00
254;DHT22;590;48.772;8.846;2022-07-23T07:28:00;24.60;40.50
254;DHT22;590;48.772;8.846;2022-07-23T07:30:28;25.10;39.30
254;DHT22;590;48.772;8.846;2022-07-23T07:33:00;25.60;36.10
254;DHT22;590;48.772;8.846;2022-07-23T07:35:31;26.00;32.90
254;DHT22;590;48.772;8.846;2022-07-23T07:38:07;26.40;30.50
254;DHT22;590;48.772;8.846;2022-07-23T07:40:35;26.70;27.70
254;DHT22;590;48.772;8.846;2022-07-23T07:43:03;26.60;27.70
254;DHT22;590;48.772;8.846;2022-07-23T07:45:34;26.50;28.70
254;DHT22;590;48.772;8.846;2022-07-23T07:48:04;26.30;28.80
254;DHT22;590;48.772;8.846;2022-07-23T07:50:33;26.10;29.90
254;DHT22;590;48.772;8.846;2022-07-23T07:53:01;26.00;29.60
254;DHT22;590;48.772;8.846;2022-07-23T07:55:30;26.50;28.70
254;DHT22;590;48.772;8.846;2022-07-23T07:57:59;27.20;24.90
254;DHT22;590;48.772;8.846;2022-07-23T08:00:33;27.70;23.70
254;DHT22;590;48.772;8.846;2022-07-23T08:03:01;28.00;21.40
254;DHT22;590;48.772;8.846;2022-07-23T08:05:30;28.10;20.50
254;DHT22;590;48.772;8.846;2022-07-23T08:08:01;28.10;19.90
254;DHT22;590;48.772;8.846;2022-07-23T08:10:30;28.00;21.40
254;DHT22;590;48.772;8.846;2022-07-23T08:12:59;28.10;20.40
254;DHT22;590;48.772;8.846;2022-07-23T08:15:29;28.00;20.60
254;DHT22;590;48.772;8.846;2022-07-23T08:17:59;27.90;19.60
254;DHT22;590;48.772;8.846;2022-07-23T08:20:27;27.70;19.40
254;DHT22;590;48.772;8.846;2022-07-23T08:22:56;27.50;19.70
254;DHT22;590;48.772;8.846;2022-07-23T08:25:27;27.30;19.80
254;DHT22;590;48.772;8.846;2022-07-23T08:27:56;27.40;20.00
254;DHT22;590;48.772;8.846;2022-07-23T08:30:25;27.40;19.50
254;DHT22;590;48.772;8.846;2022-07-23T08:32:55;27.30;20.00
254;DHT22;590;48.772;8.846;2022-07-23T08:35:28;27.30;21.00
254;DHT22;590;48.772;8.846;2022-07-23T08:37:57;27.90;21.30
254;DHT22;590;48.772;8.846;2022-07-23T08:40:28;28.70;19.30
254;DHT22;590;48.772;8.846;2022-07-23T08:42:57;29.40;14.30
254;DHT22;590;48.772;8.846;2022-07-23T08:45:26;29.90;12.90
254;DHT22;590;48.772;8.846;2022-07-23T08:47:56;30.20;11.60
254;DHT22;590;48.772;8.846;2022-07-23T08:50:28;30.10;11.00
254;DHT22;590;48.772;8.846;2022-07-23T08:52:56;29.90;11.80
254;DHT22;590;48.772;8.846;2022-07-23T08:55:26;29.70;11.80
254;DHT22;590;48.772;8.846;2022-07-23T08:57:54;29.60;11.70
254;DHT22;590;48.772;8.846;2022-07-23T09:00:22;29.70;12.10
254;DHT22;590;48.772;8.846;2022-07-23T09:02:51;29.90;10.50
254;DHT22;590;48.772;8.846;2022-07-23T09:05:20;30.00;11.20
254;DHT22;590;48.772;8.846;2022-07-23T09:08:08;30.00;10.70
254;DHT22;590;48.772;8.846;2022-07-23T09:10:45;30.00;10.00
254;DHT22;590;48.772;8.846;2022-07-23T09:13:34;29.90;9.80
254;DHT22;590;48.772;8.846;2022-07-23T09:16:12;29.90;10.30
254;DHT22;590;48.772;8.846;2022-07-23T09:18:44;30.00;9.60
254;DHT22;590;48.772;8.846;2022-07-23T09:21:25;30.30;9.00
254;DHT22;590;48.772;8.846;2022-07-23T09:23:57;30.80;8.00
254;DHT22;590;48.772;8.846;2022-07-23T09:26:32;31.10;7.60
254;DHT22;590;48.772;8.846;2022-07-23T09:29:08;31.50;7.60
254;DHT22;590;48.772;8.846;2022-07-23T09:31:46;32.00;6.30
254;DHT22;590;48.772;8.846;2022-07-23T09:34:17;32.40;5.90
254;DHT22;590;48.772;8.846;2022-07-23T09:36:46;32.50;4.70
254;DHT22;590;48.772;8.846;2022-07-23T09:39:15;32.40;4.60
254;DHT22;590;48.772;8.846;2022-07-23T09:41:46;32.60;5.00
254;DHT22;590;48.772;8.846;2022-07-23T09:44:15;32.40;4.00
254;DHT22;590;48.772;8.846;2022-07-23T09:46:48;32.20;5.50
254;DHT22;590;48.772;8.846;2022-07-23T09:49:18;32.10;5.10
254;DHT22;590;48.772;8.846;2022-07-23T09:51:52;32.10;4.70
254;DHT22;590;48.772;8.846;2022-07-23T09:54:28;32.20;4.60
254;DHT22;590;48.772;8.846;2022-07-23T09:57:00;32.60;4.10
254;DHT22;590;48.772;8.846;2022-07-23T09:59:30;32.50;3.30
254;DHT22;590;48.772;8.846;2022-07-23T10:02:01;32.40;3.80
254;DHT22;590;48.772;8.846;2022-07-23T10:04:30;32.20;4.00
254;DHT22;590;48.772;8.846;2022-07-23T10:07:02;32.20;3.00
254;DHT22;590;48.772;8.846;2022-07-23T10:09:32;31.90;3.10
254;DHT22;590;48.772;8.846;2022-07-23T10:12:03;31.70;4.10
254;DHT22;590;48.772;8.846;2022-07-23T10:14:39;31.40;4.90
254;DHT22;590;48.772;8.846;2022-07-23T10:17:08;31.40;4.80
254;DHT22;590;48.772;8.846;2022-07-23T10:19:36;31.40;5.20
254;DHT22;590;48.772;8.846;2022-07-23T10:22:07;31.50;4.70
254;DHT22;590;48.772;8.846;2022-07-23T10:24:55;31.70;4.80
254;DHT22;590;48.772;8.846;2022-07-23T10:27:47;31.90;4.70
254;DHT22;590;48.772;8.846;2022-07-23T10:30:22;31.90;3.50
254;DHT22;590;48.772;8.846;2022-07-23T10:33:05;31.70;3.80
254;DHT22;590;48.772;8.846;2022-07-23T10:35:42;31.70;5.10
254;DHT22;590;48.772;8.846;2022-07-23T10:38:15;31.80;4.70
254;DHT22;590;48.772;8.846;2022-07-23T10:40:56;31.80;4.50
254;DHT22;590;48.772;8.846;2022-07-23T10:43:27;31.80;3.30
254;DHT22;590;48.772;8.846;2022-07-23T10:45:56;31.70;5.00
254;DHT22;590;48.772;8.846;2022-07-23T10:48:25;31.80;4.40
254;DHT22;590;48.772;8.846;2022-07-23T10:51:13;31.80;4.00
254;DHT22;590;48.772;8.846;2022-07-23T10:53:55;31.40;4.10
254;DHT22;590;48.772;8.846;2022-07-23T11:00:13;31.00;5.70
254;DHT22;590;48.772;8.846;2022-07-23T11:02:44;30.80;4.30
254;DHT22;590;48.772;8.846;2022-07-23T11:05:15;30.50;5.80
254;DHT22;590;48.772;8.846;2022-07-23T11:08:12;30.40;5.50
254;DHT22;590;48.772;8.846;2022-07-23T11:10:43;30.50;6.00
254;DHT22;590;48.772;8.846;2022-07-23T11:13:45;30.50;6.00
254;DHT22;590;48.772;8.846;2022-07-23T11:16:17;30.60;6.00
254;DHT22;590;48.772;8.846;2022-07-23T11:19:05;30.80;4.40
254;DHT22;590;48.772;8.846;2022-07-23T11:21:41;30.80;4.50
254;DHT22;590;48.772;8.846;2022-07-23T11:24:11;30.60;5.30
254;DHT22;590;48.772;8.846;2022-07-23T11:26:44;30.60;6.20
254;DHT22;590;48.772;8.846;2022-07-23T11:29:41;30.70;6.10
254;DHT22;590;48.772;8.846;2022-07-23T11:32:35;30.70;5.20
254;DHT22;590;48.772;8.846;2022-07-23T11:35:25;30.80;6.20
254;DHT22;590;48.772;8.846;2022-07-23T11:38:06;31.00;4.70
254;DHT22;590;48.772;8.846;2022-07-23T11:40:34;30.90;4.70
254;DHT22;590;48.772;8.846;2022-07-23T11:43:04;30.90;4.90
254;DHT22;590;48.772;8.846;2022-07-23T11:45:35;30.80;5.10
254;DHT22;590;48.772;8.846;2022-07-23T11:48:06;30.80;6.50
254;DHT22;590;48.772;8.846;2022-07-23T11:50:35;30.90;6.20
254;DHT22;590;48.772;8.846;2022-07-23T11:53:03;30.80;4.90
254;DHT22;590;48.772;8.846;2022-07-23T11:55:31;30.70;5.50
254;DHT22;590;48.772;8.846;2022-07-23T11:57:59;30.60;4.60
254;DHT22;590;48.772;8.846;2022-07-23T12:00:30;30.60;6.00
254;DHT22;590;48.772;8.846;2022-07-23T12:03:07;30.70;5.20
254;DHT22;590;48.772;8.846;2022-07-23T12:05:37;30.70;5.10
254;DHT22;590;48.772;8.846;2022-07-23T12:08:07;30.80;4.50
254;DHT22;590;48.772;8.846;2022-07-23T12:10:36;30.80;4.50
254;DHT22;590;48.772;8.846;2022-07-23T12:13:07;30.60;4.60
254;DHT22;590;48.772;8.846;2022-07-23T12:15:38;30.40;5.40
254;DHT22;590;48.772;8.846;2022-07-23T12:18:10;30.20;5.80
254;DHT22;590;48.772;8.846;2022-07-23T12:20:40;30.20;6.80
254;DHT22;590;48.772;8.846;2022-07-23T12:23:10;30.30;6.30
254;DHT22;590;48.772;8.846;2022-07-23T12:25:47;30.20;5.80
254;DHT22;590;48.772;8.846;2022-07-23T12:28:17;30.10;6.50
254;DHT22;590;48.772;8.846;2022-07-23T12:30:46;30.20;6.50
254;DHT22;590;48.772;8.846;2022-07-23T12:33:23;30.20;6.30
254;DHT22;590;48.772;8.846;2022-07-23T12:35:53;30.20;5.80
254;DHT22;590;48.772;8.846;2022-07-23T12:38:24;30.10;5.50
254;DHT22;590;48.772;8.846;2022-07-23T12:40:53;30.00;5.70
254;DHT22;590;48.772;8.846;2022-07-23T12:43:23;30.00;5.20
254;DHT22;590;48.772;8.846;2022-07-23T12:45:53;29.80;5.00
254;DHT22;590;48.772;8.846;2022-07-23T12:48:25;29.70;6.20
254;DHT22;590;48.772;8.846;2022-07-23T12:50:58;29.70;6.50
254;DHT22;590;48.772;8.846;2022-07-23T12:53:29;29.70;5.40
254;DHT22;590;48.772;8.846;2022-07-23T12:56:00;29.60;6.50
254;DHT22;590;48.772;8.846;2022-07-23T12:58:50;29.70;7.00
254;DHT22;590;48.772;8.846;2022-07-23T13:01:28;29.90;7.20
254;DHT22;590;48.772;8.846;2022-07-23T13:04:04;30.20;7.10
254;DHT22;590;48.772;8.846;2022-07-23T13:06:40;30.50;6.40
254;DHT22;590;48.772;8.846;2022-07-23T13:09:11;30.80;6.10
254;DHT22;590;48.772;8.846;2022-07-23T13:11:42;31.00;4.50
254;DHT22;590;48.772;8.846;2022-07-23T13:14:11;31.20;4.50
254;DHT22;590;48.772;8.846;2022-07-23T13:16:40;31.30;4.20
254;DHT22;590;48.772;8.846;2022-07-23T13:19:10;31.30;3.40
254;DHT22;590;48.772;8.846;2022-07-23T13:21:39;31.20;4.30
254;DHT22;590;48.772;8.846;2022-07-23T13:24:09;31.20;4.10
254;DHT22;590;48.772;8.846;2022-07-23T13:26:39;31.10;4.30
254;DHT22;590;48.772;8.846;2022-07-23T13:29:07;31.20;4.00
254;DHT22;590;48.772;8.846;2022-07-23T13:31:37;31.20;3.70
254;DHT22;590;48.772;8.846;2022-07-23T13:34:06;31.20;3.80
254;DHT22;590;48.772;8.846;2022-07-23T13:36:35;31.10;4.30
254;DHT22;590;48.772;8.846;2022-07-23T13:39:04;31.20;4.60
254;DHT22;590;48.772;8.846;2022-07-23T13:41:36;31.20;3.70
254;DHT22;590;48.772;8.846;2022-07-23T13:44:04;31.30;3.30
254;DHT22;590;48.772;8.846;2022-07-23T13:46:33;31.40;3.50
254;DHT22;590;48.772;8.846;2022-07-23T13:49:01;31.40;3.60
254;DHT22;590;48.772;8.846;2022-07-23T13:51:32;31.40;3.90
254;DHT22;590;48.772;8.846;2022-07-23T13:54:02;31.40;2.50
254;DHT22;590;48.772;8.846;2022-07-23T13:56:34;31.50;2.50
254;DHT22;590;48.772;8.846;2022-07-23T13:59:03;31.40;3.10
254;DHT22;590;48.772;8.846;2022-07-23T14:01:32;31.40;3.50
254;DHT22;590;48.772;8.846;2022-07-23T14:04:11;31.40;2.20
254;DHT22;590;48.772;8.846;2022-07-23T14:06:40;31.40;2.50
254;DHT22;590;48.772;8.846;2022-07-23T14:09:09;31.40;2.40
254;DHT22;590;48.772;8.846;2022-07-23T14:11:37;31.40;2.00
254;DHT22;590;48.772;8.846;2022-07-23T14:14:05;31.40;1.90
254;DHT22;590;48.772;8.846;2022-07-23T14:16:33;31.40;1.60
254;DHT22;590;48.772;8.846;2022-07-23T14:19:02;31.40;1.70
254;DHT22;590;48.772;8.846;2022-07-23T14:21:30;31.40;1.20
254;DHT22;590;48.772;8.846;2022-07-23T14:23:59;31.40;2.10
254;DHT22;590;48.772;8.846;2022-07-23T14:26:29;31.30;2.40
254;DHT22;590;48.772;8.846;2022-07-23T14:28:57;31.40;2.30
254;DHT22;590;48.772;8.846;2022-07-23T14:31:26;31.30;2.20
254;DHT22;590;48.772;8.846;2022-07-23T14:33:55;31.20;2.00
254;DHT22;590;48.772;8.846;2022-07-23T14:36:23;31.20;2.20
254;DHT22;590;48.772;8.846;2022-07-23T14:38:51;31.20;2.00
254;DHT22;590;48.772;8.846;2022-07-23T14:41:19;31.10;1.90
254;DHT22;590;48.772;8.846;2022-07-23T14:43:54;31.00;2.60
254;DHT22;590;48.772;8.846;2022-07-23T14:46:22;30.90;2.90
254;DHT22;590;48.772;8.846;2022-07-23T14:48:51;30.80;3.10
254;DHT22;590;48.772;8.846;2022-07-23T14:51:19;30.60;3.70
254;DHT22;590;48.772;8.846;2022-07-23T14:53:48;30.50;3.80
254;DHT22;590;48.772;8.846;2022-07-23T14:56:16;30.40;3.60
254;DHT22;590;48.772;8.846;2022-07-23T14:58:44;30.30;4.30
254;DHT22;590;48.772;8.846;2022-07-23T15:01:14;30.30;4.50
254;DHT22;590;48.772;8.846;2022-07-23T15:03:43;30.30;4.40
254;DHT22;590;48.772;8.846;2022-07-23T15:06:11;30.20;4.10
254;DHT22;590;48.772;8.846;2022-07-23T15:08:40;30.20;4.50
254;DHT22;590;48.772;8.846;2022-07-23T15:11:08;30.20;4.50
254;DHT22;590;48.772;8.846;2022-07-23T15:13:36;30.10;5.20
254;DHT22;590;48.772;8.846;2022-07-23T15:16:07;30.00;5.00
254;DHT22;590;48.772;8.846;2022-07-23T15:18:37;29.90;5.00
254;DHT22;590;48.772;8.846;2022-07-23T15:21:06;29.80;5.20
254;DHT22;590;48.772;8.846;2022-07-23T15:23:35;29.80;5.60
254;DHT22;590;48.772;8.846;2022-07-23T15:26:06;29.70;5.40
254;DHT22;590;48.772;8.846;2022-07-23T15:28:36;29.50;5.70
254;DHT22;590;48.772;8.846;2022-07-23T15:31:04;29.50;6.00
254;DHT22;590;48.772;8.846;2022-07-23T15:33:36;29.50;6.80
254;DHT22;590;48.772;8.846;2022-07-23T15:36:07;29.60;6.50
254;DHT22;590;48.772;8.846;2022-07-23T15:38:36;29.50;5.90
254;DHT22;590;48.772;8.846;2022-07-23T15:41:04;29.50;6.50
254;DHT22;590;48.772;8.846;2022-07-23T15:43:32;29.40;6.20
254;DHT22;590;48.772;8.846;2022-07-23T15:46:00;29.40;6.20
254;DHT22;590;48.772;8.846;2022-07-23T15:48:35;29.30;5.90
254;DHT22;590;48.772;8.846;2022-07-23T15:51:05;29.20;5.90
254;DHT22;590;48.772;8.846;2022-07-23T15:53:34;29.20;6.40
254;DHT22;590;48.772;8.846;2022-07-23T15:56:05;29.10;7.10
254;DHT22;590;48.772;8.846;2022-07-23T15:58:41;29.20;6.80
254;DHT22;590;48.772;8.846;2022-07-23T16:01:10;29.10;6.60
254;DHT22;590;48.772;8.846;2022-07-23T16:03:40;29.10;6.80
254;DHT22;590;48.772;8.846;2022-07-23T16:06:11;29.20;6.80
254;DHT22;590;48.772;8.846;2022-07-23T16:08:45;29.10;6.90
254;DHT22;590;48.772;8.846;2022-07-23T16:11:14;29.10;7.30
254;DHT22;590;48.772;8.846;2022-07-23T16:13:42;29.20;7.00
254;DHT22;590;48.772;8.846;2022-07-23T16:16:10;29.20;6.90
254;DHT22;590;48.772;8.846;2022-07-23T16:18:38;29.30;7.20
254;DHT22;590;48.772;8.846;2022-07-23T16:21:06;29.40;7.40
254;DHT22;590;48.772;8.846;2022-07-23T16:23:43;29.40;7.10
254;DHT22;590;48.772;8.846;2022-07-23T16:26:12;29.40;6.80
254;DHT22;590;48.772;8.846;2022-07-23T16:28:40;29.30;7.30
254;DHT22;590;48.772;8.846;2022-07-23T16:31:08;29.20;7.20
254;DHT22;590;48.772;8.846;2022-07-23T16:33:37;29.20;7.20
254;DHT22;590;48.772;8.846;2022-07-23T16:36:06;29.10;7.30
254;DHT22;590;48.772;8.846;2022-07-23T16:38:35;29.10;7.70
254;DHT22;590;48.772;8.846;2022-07-23T16:41:05;29.00;7.90
254;DHT22;590;48.772;8.846;2022-07-23T16:43:34;28.90;7.80
254;DHT22;590;48.772;8.846;2022-07-23T16:46:02;28.80;7.90
254;DHT22;590;48.772;8.846;2022-07-23T16:48:30;28.70;7.80
254;DHT22;590;48.772;8.846;2022-07-23T16:50:59;28.60;8.10
254;DHT22;590;48.772;8.846;2022-07-23T16:53:32;28.50;8.30
254;DHT22;590;48.772;8.846;2022-07-23T16:56:01;28.60;8.50
254;DHT22;590;48.772;8.846;2022-07-23T16:58:31;28.60;8.70
254;DHT22;590;48.772;8.846;2022-07-23T17:00:59;28.60;8.50
254;DHT22;590;48.772;8.846;2022-07-23T17:03:27;28.60;8.50
254;DHT22;590;48.772;8.846;2022-07-23T17:05:56;28.60;8.60